Time;durP1;ratioP1;P1;durP2;ratioP2;P2;SDS_P1;SDS_P2;PMS_P1;PMS_P2;Temp;Humidity;BMP_temperature;BMP_pressure;BME280_temperature;BME280_humidity;BME280_pressure;Samples;Min_cycle;Max_cycle;Signal;HPM_P1;HPM_P2
2023/08/09 00:00:32;;;;;;;6.25;1.55;;;12.90;99.90;;;;;;5055783;28;20036;-72
2023/08/09 00:03:01;;;;;;;6.60;1.70;;;12.70;99.90;;;;;;5055908;28;20147;-72
2023/08/09 00:05:27;;;;;;;3.22;1.27;;;12.70;99.90;;;;;;5073696;28;20112;-71
2023/08/09 00:07:52;;;;;;;3.17;1.77;;;12.70;99.90;;;;;;5073610;28;20064;-72
2023/08/09 00:10:18;;;;;;;5.22;1.63;;;12.70;99.90;;;;;;5073539;28;20116;-72
2023/08/09 00:12:44;;;;;;;4.53;1.20;;;12.80;99.90;;;;;;5073695;28;20070;-72
2023/08/09 00:15:10;;;;;;;6.25;1.90;;;12.60;99.90;;;;;;5073599;28;20033;-72
2023/08/09 00:17:36;;;;;;;2.50;1.80;;;12.70;99.90;;;;;;5038767;28;20483;-72
2023/08/09 00:20:02;;;;;;;5.68;1.50;;;12.60;99.90;;;;;;5055457;28;20040;-72
2023/08/09 00:22:27;;;;;;;4.82;1.75;;;12.50;99.90;;;;;;5073635;28;20040;-72
2023/08/09 00:24:53;;;;;;;5.18;1.45;;;12.50;99.90;;;;;;5073525;28;20036;-71
2023/08/09 00:27:19;;;;;;;5.93;2.15;;;12.50;99.90;;;;;;5073118;28;20496;-71
2023/08/09 00:29:45;;;;;;;5.45;1.88;;;12.40;99.90;;;;;;5055338;28;20124;-71
2023/08/09 00:32:10;;;;;;;4.38;1.83;;;12.40;99.90;;;;;;5055141;28;20119;-72
2023/08/09 00:34:36;;;;;;;5.47;1.65;;;12.60;99.90;;;;;;5055252;28;20097;-72
2023/08/09 00:37:01;;;;;;;3.85;1.83;;;12.60;99.90;;;;;;5073233;28;20037;-71
2023/08/09 00:39:27;;;;;;;3.78;1.90;;;12.50;99.90;;;;;;5055030;28;20048;-71
2023/08/09 00:41:53;;;;;;;3.75;1.67;;;12.40;99.90;;;;;;5055042;28;20048;-71
2023/08/09 00:44:19;;;;;;;9.13;1.50;;;12.40;99.90;;;;;;5073005;28;20094;-72
2023/08/09 00:46:44;;;;;;;4.10;1.50;;;12.40;99.90;;;;;;5055088;28;20032;-71
2023/08/09 00:49:10;;;;;;;3.28;1.38;;;12.30;99.90;;;;;;5072658;28;20062;-72
2023/08/09 00:51:36;;;;;;;7.97;1.90;;;12.30;99.90;;;;;;5054772;28;20459;-71
2023/08/09 00:54:01;;;;;;;4.47;1.50;;;12.30;99.90;;;;;;5054764;28;20052;-72
2023/08/09 00:56:27;;;;;;;5.50;2.22;;;12.40;99.90;;;;;;5072022;28;20029;-71
2023/08/09 00:58:52;;;;;;;4.18;1.60;;;12.30;99.90;;;;;;5054588;28;20044;-71
2023/08/09 01:01:18;;;;;;;2.47;1.17;;;12.50;99.90;;;;;;5054694;28;20044;-71
2023/08/09 01:03:44;;;;;;;3.92;1.45;;;12.30;99.90;;;;;;5072446;28;20043;-72
2023/08/09 01:06:28;;;;;;;2.95;1.17;;;12.40;99.90;;;;;;5054601;28;20125;-72
2023/08/09 01:09:09;;;;;;;2.85;1.48;;;12.40;99.90;;;;;;5054390;28;20407;-72
2023/08/09 01:11:53;;;;;;;5.90;1.70;;;12.20;99.90;;;;;;5054315;28;20048;-71
2023/08/09 01:14:21;;;;;;;6.03;1.48;;;12.20;99.90;;;;;;5054626;28;20055;-71
2023/08/09 01:16:49;;;;;;;3.97;1.40;;;12.20;99.90;;;;;;5054297;28;20122;-72
2023/08/09 01:19:46;;;;;;;2.92;1.70;;;12.20;99.90;;;;;;5054185;28;20044;-71
2023/08/09 01:22:20;;;;;;;7.72;2.97;;;12.40;99.90;;;;;;5052060;28;20134;-72
2023/08/09 01:24:45;;;;;;;5.63;1.45;;;12.20;99.90;;;;;;5072183;28;20400;-71
2023/08/09 01:27:12;;;;;;;3.80;1.70;;;12.20;99.90;;;;;;5054149;28;20040;-72
2023/08/09 01:29:38;;;;;;;4.28;1.60;;;12.10;99.90;;;;;;5054478;28;20431;-72
2023/08/09 01:32:04;;;;;;;3.70;1.42;;;12.10;99.90;;;;;;5054022;28;20051;-71
2023/08/09 01:34:31;;;;;;;4.95;1.67;;;12.10;99.90;;;;;;5054137;28;20049;-72
2023/08/09 01:37:03;;;;;;;4.47;1.42;;;12.10;99.90;;;;;;5053873;28;20546;-72
2023/08/09 01:39:32;;;;;;;5.68;2.13;;;12.30;99.90;;;;;;5054226;28;20076;-71
2023/08/09 01:41:59;;;;;;;5.88;1.58;;;12.10;99.90;;;;;;5037353;28;20051;-71
2023/08/09 01:44:25;;;;;;;3.75;1.52;;;12.20;99.90;;;;;;5053982;28;20048;-72
2023/08/09 01:46:51;;;;;;;2.47;1.42;;;12.10;99.90;;;;;;5054112;28;20044;-71
2023/08/09 01:49:22;;;;;;;4.47;1.23;;;12.10;99.90;;;;;;5037117;28;20135;-72
2023/08/09 01:51:48;;;;;;;4.60;1.77;;;12.00;99.90;;;;;;5053738;28;20036;-72
2023/08/09 01:54:17;;;;;;;4.28;1.17;;;12.20;99.90;;;;;;5054127;28;20412;-71
2023/08/09 01:56:43;;;;;;;3.63;1.67;;;12.10;99.90;;;;;;5053712;28;20040;-72
2023/08/09 01:59:09;;;;;;;3.38;1.52;;;12.10;99.90;;;;;;5053621;28;20037;-72
2023/08/09 02:01:36;;;;;;;3.67;1.55;;;12.10;99.90;;;;;;5053898;28;20097;-72
2023/08/09 02:04:03;;;;;;;3.83;1.50;;;12.10;99.90;;;;;;5053721;28;20047;-71
2023/08/09 02:06:32;;;;;;;4.60;1.52;;;12.10;99.90;;;;;;5053413;28;20127;-72
2023/08/09 02:08:59;;;;;;;2.90;1.65;;;12.20;99.90;;;;;;5053816;28;20129;-71
2023/08/09 02:11:25;;;;;;;6.32;1.48;;;12.00;99.90;;;;;;5036982;28;20452;-72
2023/08/09 02:13:51;;;;;;;9.02;1.58;;;12.00;99.90;;;;;;5053860;28;20137;-72
2023/08/09 02:16:18;;;;;;;2.30;1.10;;;12.10;99.90;;;;;;5053636;28;20032;-72
2023/08/09 02:18:44;;;;;;;4.93;1.77;;;12.20;99.90;;;;;;5053267;28;20530;-72
2023/08/09 02:21:10;;;;;;;3.55;1.30;;;12.00;99.90;;;;;;5053763;28;20029;-72
2023/08/09 02:23:39;;;;;;;3.15;1.65;;;12.00;99.90;;;;;;5053524;28;20045;-71
2023/08/09 02:26:08;;;;;;;5.38;1.90;;;12.10;99.90;;;;;;5053474;28;20036;-72
2023/08/09 02:28:33;;;;;;;7.32;2.03;;;12.10;99.90;;;;;;5053185;28;20045;-72
2023/08/09 02:30:59;;;;;;;3.28;1.70;;;11.80;99.90;;;;;;5036951;28;20130;-72
2023/08/09 02:33:25;;;;;;;4.65;1.58;;;11.90;99.90;;;;;;5053312;28;20052;-72
2023/08/09 02:35:55;;;;;;;6.80;1.77;;;12.00;99.90;;;;;;5053375;28;20127;-72
2023/08/09 02:38:22;;;;;;;5.20;1.83;;;12.00;99.90;;;;;;5053141;28;20075;-72
2023/08/09 02:40:49;;;;;;;2.25;1.45;;;12.00;99.90;;;;;;5053350;28;20098;-72
2023/08/09 02:43:19;;;;;;;4.57;2.38;;;11.90;99.90;;;;;;5071207;28;20519;-71
2023/08/09 02:45:45;;;;;;;3.92;1.35;;;11.90;99.90;;;;;;5053290;28;20046;-71
2023/08/09 02:48:11;;;;;;;9.15;1.83;;;12.00;99.90;;;;;;5053046;28;20044;-72
2023/08/09 02:50:37;;;;;;;6.10;1.60;;;11.80;99.90;;;;;;5053139;28;20081;-72
2023/08/09 02:53:04;;;;;;;3.30;1.85;;;11.80;99.90;;;;;;5053299;28;20072;-72
2023/08/09 02:55:31;;;;;;;5.50;2.20;;;11.90;99.90;;;;;;5053470;28;20442;-72
2023/08/09 02:57:57;;;;;;;3.97;1.73;;;12.00;99.90;;;;;;5052946;28;20044;-71
2023/08/09 03:00:22;;;;;;;3.95;1.70;;;11.80;99.90;;;;;;5053370;28;20123;-71
2023/08/09 03:02:49;;;;;;;3.85;1.70;;;11.90;99.90;;;;;;5053216;28;20523;-72
2023/08/09 03:05:15;;;;;;;4.53;2.00;;;11.80;99.90;;;;;;5053172;28;20116;-72
2023/08/09 03:07:41;;;;;;;4.88;1.88;;;11.90;99.90;;;;;;5053083;28;20174;-71
2023/08/09 03:10:07;;;;;;;3.17;1.85;;;11.90;99.90;;;;;;5070975;28;20480;-71
2023/08/09 03:12:33;;;;;;;4.30;2.03;;;11.80;99.90;;;;;;5052975;28;20101;-71
2023/08/09 03:14:59;;;;;;;5.47;1.75;;;11.80;99.90;;;;;;5070979;28;20044;-71
2023/08/09 03:17:25;;;;;;;4.32;1.90;;;11.90;99.90;;;;;;5070933;28;20116;-71
2023/08/09 03:19:50;;;;;;;2.95;1.75;;;11.80;99.90;;;;;;5074117;28;20063;-72
2023/08/09 03:22:17;;;;;;;3.25;1.75;;;11.70;99.90;;;;;;5056871;28;20194;-72
2023/08/09 03:24:42;;;;;;;6.07;1.77;;;11.90;99.90;;;;;;5056546;28;20071;-72
2023/08/09 03:27:08;;;;;;;3.55;1.83;;;11.70;99.90;;;;;;5074046;28;20083;-71
2023/08/09 03:29:33;;;;;;;4.18;2.53;;;11.80;99.90;;;;;;5074304;28;20044;-71
2023/08/09 03:31:59;;;;;;;5.30;2.00;;;11.60;99.90;;;;;;5074462;28;20048;-72
2023/08/09 03:34:25;;;;;;;7.15;2.65;;;11.60;99.90;;;;;;5056453;28;20499;-71
2023/08/09 03:36:50;;;;;;;4.28;2.05;;;11.80;99.90;;;;;;5056519;28;20051;-71
2023/08/09 03:39:16;;;;;;;2.95;1.63;;;11.60;99.90;;;;;;5056448;28;20040;-71
2023/08/09 03:41:43;;;;;;;5.50;1.90;;;11.70;99.90;;;;;;5056185;28;20045;-71
2023/08/09 03:44:08;;;;;;;7.50;2.38;;;11.80;99.90;;;;;;5056219;28;20097;-71
2023/08/09 03:46:34;;;;;;;5.60;1.85;;;11.60;99.90;;;;;;5062845;28;20045;-71
2023/08/09 03:49:00;;;;;;;7.07;2.08;;;11.80;99.90;;;;;;5036318;28;20040;-72
2023/08/09 03:51:26;;;;;;;2.58;1.70;;;11.70;99.90;;;;;;5036021;28;20090;-72
2023/08/09 03:53:52;;;;;;;5.43;2.20;;;11.60;99.90;;;;;;5036056;28;20081;-71
2023/08/09 03:56:17;;;;;;;3.72;2.00;;;11.60;99.90;;;;;;5019548;28;20029;-71
2023/08/09 03:58:43;;;;;;;3.25;1.75;;;11.60;99.90;;;;;;5035730;28;20079;-72
2023/08/09 04:01:09;;;;;;;4.25;2.20;;;11.60;99.90;;;;;;5035882;28;20579;-71
2023/08/09 04:03:34;;;;;;;5.80;1.92;;;11.80;99.90;;;;;;5035590;28;20091;-72
2023/08/09 04:06:02;;;;;;;4.43;1.67;;;11.60;99.90;;;;;;5035273;28;20466;-72
2023/08/09 04:08:29;;;;;;;6.28;1.90;;;11.70;99.90;;;;;;5035513;28;20037;-72
2023/08/09 04:10:54;;;;;;;5.00;2.15;;;11.80;99.90;;;;;;5035297;28;20124;-72
2023/08/09 04:13:21;;;;;;;4.60;2.30;;;11.70;99.90;;;;;;5035736;28;20123;-72
2023/08/09 04:15:46;;;;;;;3.05;2.00;;;11.70;99.90;;;;;;5035474;28;20075;-72
2023/08/09 04:18:14;;;;;;;4.15;1.95;;;11.50;99.90;;;;;;5035500;28;20036;-72
2023/08/09 04:20:40;;;;;;;5.45;2.45;;;11.70;99.90;;;;;;5019060;28;20045;-71
2023/08/09 04:23:06;;;;;;;6.03;2.20;;;11.60;99.90;;;;;;5053399;28;20041;-72
2023/08/09 04:25:32;;;;;;;5.93;2.00;;;11.50;99.90;;;;;;5035666;28;20093;-72
2023/08/09 04:27:59;;;;;;;4.63;2.00;;;11.70;99.90;;;;;;5035167;28;20043;-71
2023/08/09 04:30:24;;;;;;;4.35;2.00;;;11.70;99.90;;;;;;5035116;28;20045;-72
2023/08/09 04:32:52;;;;;;;5.65;1.70;;;11.70;99.90;;;;;;5053359;28;20037;-72
2023/08/09 04:35:18;;;;;;;3.92;1.75;;;11.70;99.90;;;;;;5035370;28;20045;-72
2023/08/09 04:37:44;;;;;;;3.53;1.70;;;11.80;99.90;;;;;;5034969;28;20041;-72
2023/08/09 04:40:10;;;;;;;4.68;2.42;;;11.50;99.90;;;;;;5035431;28;20033;-72
2023/08/09 04:42:41;;;;;;;4.82;2.10;;;11.70;99.90;;;;;;5035066;28;20044;-72
2023/08/09 04:45:10;;;;;;;4.60;1.90;;;11.80;99.90;;;;;;5035411;28;20045;-72
2023/08/09 04:47:36;;;;;;;4.18;1.80;;;11.80;99.90;;;;;;5034804;28;20504;-71
2023/08/09 04:50:03;;;;;;;6.35;2.97;;;11.70;99.90;;;;;;5034963;28;20091;-71
2023/08/09 04:52:30;;;;;;;4.72;2.00;;;11.70;99.90;;;;;;5034919;28;20032;-71
2023/08/09 04:54:56;;;;;;;3.58;2.17;;;11.70;99.90;;;;;;5035119;28;20123;-72
2023/08/09 04:57:21;;;;;;;4.82;2.03;;;11.90;99.90;;;;;;5034594;28;20033;-71
2023/08/09 04:59:47;;;;;;;5.20;2.25;;;11.90;99.90;;;;;;5034873;28;20043;-72
2023/08/09 05:02:12;;;;;;;5.53;2.08;;;12.00;99.90;;;;;;5034976;28;20041;-72
2023/08/09 05:04:38;;;;;;;4.78;2.03;;;12.20;99.90;;;;;;5035012;28;20037;-72
2023/08/09 05:07:04;;;;;;;5.25;2.65;;;12.20;99.90;;;;;;5034933;28;20585;-72
2023/08/09 05:09:31;;;;;;;6.13;1.77;;;12.10;99.90;;;;;;5034436;28;20045;-72
2023/08/09 05:11:58;;;;;;;3.72;2.03;;;12.30;99.90;;;;;;5034316;28;20090;-71
2023/08/09 05:14:24;;;;;;;4.07;2.05;;;12.50;99.90;;;;;;5034567;28;20567;-71
2023/08/09 05:16:50;;;;;;;3.70;2.08;;;12.80;99.90;;;;;;5034423;28;20116;-72
2023/08/09 05:19:16;;;;;;;4.60;2.05;;;12.80;99.90;;;;;;5034358;28;20171;-72
2023/08/09 05:21:41;;;;;;;2.92;1.48;;;13.10;99.90;;;;;;5034406;28;20155;-71
2023/08/09 05:24:07;;;;;;;5.28;1.92;;;13.20;99.90;;;;;;5034375;28;20077;-72
2023/08/09 05:26:32;;;;;;;3.65;1.70;;;13.30;99.90;;;;;;5034186;28;20036;-72
2023/08/09 05:28:58;;;;;;;3.63;1.73;;;13.70;99.90;;;;;;5034210;28;20076;-72
2023/08/09 05:31:23;;;;;;;3.25;1.70;;;13.70;99.90;;;;;;5034136;28;20029;-72
2023/08/09 05:33:49;;;;;;;5.13;1.63;;;14.00;99.90;;;;;;5034525;28;20049;-72
2023/08/09 05:36:14;;;;;;;1.83;1.40;;;14.20;99.90;;;;;;5034349;28;20525;-72
2023/08/09 05:38:40;;;;;;;4.18;1.63;;;14.30;99.90;;;;;;5033853;28;20033;-72
2023/08/09 05:41:05;;;;;;;4.25;1.80;;;14.50;99.90;;;;;;5033683;28;20128;-72
2023/08/09 05:43:31;;;;;;;5.38;1.52;;;14.70;99.90;;;;;;5034129;28;20072;-71
2023/08/09 05:45:56;;;;;;;4.28;1.40;;;14.80;99.90;;;;;;5034026;28;20037;-71
2023/08/09 05:48:22;;;;;;;3.97;1.38;;;14.90;99.90;;;;;;5033839;28;20252;-72
2023/08/09 05:50:47;;;;;;;3.47;1.40;;;15.20;99.90;;;;;;5033846;28;20033;-71
2023/08/09 05:53:13;;;;;;;5.15;1.23;;;15.20;99.90;;;;;;5033911;28;20040;-72
2023/08/09 05:55:40;;;;;;;2.58;1.17;;;15.30;99.90;;;;;;5033878;28;20086;-72
2023/08/09 05:58:05;;;;;;;3.28;1.20;;;15.50;99.90;;;;;;5033720;28;20073;-71
2023/08/09 06:00:31;;;;;;;2.80;1.50;;;15.60;99.90;;;;;;5051882;28;20075;-72
2023/08/09 06:02:57;;;;;;;3.20;1.17;;;15.90;99.90;;;;;;5033896;28;20045;-71
2023/08/09 06:05:25;;;;;;;3.78;1.73;;;16.00;99.90;;;;;;5034036;28;20048;-72
2023/08/09 06:07:52;;;;;;;3.47;1.10;;;16.00;99.90;;;;;;5033361;28;20660;-72
2023/08/09 06:10:20;;;;;;;2.03;1.00;;;16.30;99.90;;;;;;5033525;28;20052;-72
2023/08/09 06:12:46;;;;;;;2.15;0.93;;;16.30;99.90;;;;;;5034004;28;20433;-72
2023/08/09 06:15:11;;;;;;;4.35;1.17;;;16.60;99.90;;;;;;5033654;28;20095;-72
2023/08/09 06:17:37;;;;;;;4.15;1.25;;;16.70;99.90;;;;;;5033375;28;20072;-72
2023/08/09 06:20:07;;;;;;;3.40;0.98;;;16.60;99.90;;;;;;5033659;28;20052;-72
2023/08/09 06:22:32;;;;;;;2.70;1.30;;;17.00;99.90;;;;;;5033439;28;20036;-72
2023/08/09 06:24:59;;;;;;;3.00;1.30;;;16.80;99.90;;;;;;5033592;28;20041;-72
2023/08/09 06:27:24;;;;;;;1.90;1.30;;;17.10;99.90;;;;;;5033324;28;20037;-72
2023/08/09 06:29:50;;;;;;;1.95;1.02;;;17.30;99.90;;;;;;5033786;28;20037;-72
2023/08/09 06:32:15;;;;;;;3.95;1.08;;;17.30;99.90;;;;;;5033372;28;20041;-72
2023/08/09 06:34:42;;;;;;;1.45;0.80;;;17.50;99.90;;;;;;5033539;28;20045;-72
2023/08/09 06:37:08;;;;;;;2.08;1.02;;;17.60;99.90;;;;;;5033415;28;20041;-72
2023/08/09 06:39:34;;;;;;;3.97;0.85;;;17.60;99.90;;;;;;5033863;28;20446;-72
2023/08/09 06:42:00;;;;;;;3.20;0.90;;;17.80;99.90;;;;;;5051413;28;20413;-73
2023/08/09 06:44:26;;;;;;;4.47;1.20;;;17.90;99.90;;;;;;5033685;28;20033;-72
2023/08/09 06:46:53;;;;;;;3.13;1.17;;;18.00;99.90;;;;;;5051190;28;20571;-72
2023/08/09 06:49:21;;;;;;;3.17;0.80;;;18.20;99.90;;;;;;5033445;28;20400;-72
2023/08/09 06:51:46;;;;;;;2.90;0.73;;;18.30;99.90;;;;;;5033133;28;20134;-72
2023/08/09 06:54:12;;;;;;;5.57;0.88;;;18.30;99.90;;;;;;5035837;28;20505;-72
2023/08/09 06:56:37;;;;;;;3.20;1.00;;;18.60;99.90;;;;;;5037048;28;20036;-72
2023/08/09 06:59:04;;;;;;;2.13;0.90;;;18.60;99.90;;;;;;5037203;28;20044;-72
2023/08/09 07:01:30;;;;;;;3.33;0.80;;;18.70;99.90;;;;;;5037283;28;20049;-72
2023/08/09 07:03:56;;;;;;;2.85;0.80;;;18.70;99.90;;;;;;5054933;28;20111;-72
2023/08/09 07:06:25;;;;;;;3.42;0.70;;;18.90;99.90;;;;;;5020352;28;20048;-72
2023/08/09 07:08:53;;;;;;;5.45;0.95;;;19.10;99.90;;;;;;5036756;28;20048;-72
2023/08/09 07:11:22;;;;;;;4.50;1.25;;;19.10;99.90;;;;;;5036616;28;20076;-72
2023/08/09 07:13:48;;;;;;;2.97;0.70;;;19.20;99.90;;;;;;5054792;28;20047;-72
2023/08/09 07:16:13;;;;;;;4.00;0.90;;;19.20;99.90;;;;;;5036944;28;20116;-72
2023/08/09 07:18:39;;;;;;;2.05;0.60;;;19.40;99.90;;;;;;5036521;28;20059;-72
2023/08/09 07:21:04;;;;;;;4.57;0.75;;;19.50;99.90;;;;;;5054471;28;20123;-72
2023/08/09 07:23:31;;;;;;;1.98;0.73;;;19.70;99.90;;;;;;5037030;28;20044;-72
2023/08/09 07:25:57;;;;;;;3.30;0.82;;;19.80;99.90;;;;;;5054592;28;20170;-72
2023/08/09 07:28:23;;;;;;;2.35;0.90;;;19.80;99.90;;;;;;5054156;28;20567;-72
2023/08/09 07:30:51;;;;;;;2.75;0.80;;;19.90;99.90;;;;;;5036294;28;20033;-72
2023/08/09 07:33:20;;;;;;;5.50;0.90;;;20.00;99.90;;;;;;5036421;28;20056;-72
2023/08/09 07:35:45;;;;;;;1.58;0.77;;;20.00;99.90;;;;;;5054224;28;20041;-72
2023/08/09 07:38:11;;;;;;;3.28;1.55;;;20.20;99.90;;;;;;5043926;28;20511;-73
2023/08/09 07:40:37;;;;;;;3.28;1.00;;;20.30;99.90;;;;;;5066109;28;20107;-74
2023/08/09 07:43:03;;;;;;;2.20;0.70;;;20.30;99.90;;;;;;5056237;28;20041;-75
2023/08/09 07:45:29;;;;;;;3.60;0.90;;;20.40;99.90;;;;;;5056198;28;20102;-73
2023/08/09 07:47:55;;;;;;;3.53;0.70;;;20.30;99.90;;;;;;5056127;28;20036;-75
2023/08/09 07:50:21;;;;;;;4.88;0.90;;;20.40;99.90;;;;;;5039675;28;20044;-73
2023/08/09 07:52:47;;;;;;;3.17;0.85;;;20.40;99.90;;;;;;5055779;28;20558;-74
2023/08/09 07:55:13;;;;;;;3.60;0.90;;;20.30;99.90;;;;;;5056011;28;20167;-73
2023/08/09 07:57:39;;;;;;;4.07;0.70;;;20.30;99.90;;;;;;5055738;28;20036;-73
2023/08/09 08:00:17;;;;;;;1.35;0.70;;;20.30;99.90;;;;;;5055768;28;20082;-74
2023/08/09 08:02:44;;;;;;;5.15;0.90;;;20.50;99.90;;;;;;5055810;28;20037;-74
2023/08/09 08:05:13;;;;;;;2.17;0.60;;;20.50;99.90;;;;;;5055512;28;20052;-74
2023/08/09 08:07:39;;;;;;;3.03;0.60;;;20.30;99.90;;;;;;5055466;28;20047;-74
2023/08/09 08:10:09;;;;;;;2.60;0.85;;;20.40;99.90;;;;;;5055480;28;20051;-74
2023/08/09 08:12:38;;;;;;;5.75;0.80;;;20.50;99.90;;;;;;5073574;28;20040;-74
2023/08/09 08:15:04;;;;;;;2.70;0.63;;;20.50;99.90;;;;;;5055597;28;20033;-74
2023/08/09 08:17:31;;;;;;;3.85;1.00;;;20.60;99.90;;;;;;5055268;28;20040;-74
2023/08/09 08:19:57;;;;;;;1.65;0.77;;;20.70;99.90;;;;;;5055702;28;20556;-74
2023/08/09 08:22:22;;;;;;;2.38;0.90;;;20.70;99.90;;;;;;5055813;28;20064;-74
2023/08/09 08:24:48;;;;;;;5.95;1.10;;;21.00;99.90;;;;;;5055757;28;20036;-74
2023/08/09 08:27:13;;;;;;;4.80;1.17;;;20.70;99.90;;;;;;5055194;28;20514;-74
2023/08/09 08:29:39;;;;;;;2.75;0.80;;;20.30;99.90;;;;;;5055330;28;20415;-73
2023/08/09 08:32:05;;;;;;;2.15;0.60;;;20.60;99.90;;;;;;5055085;28;20032;-73
2023/08/09 08:34:31;;;;;;;3.63;0.70;;;20.60;99.90;;;;;;5038749;28;20048;-73
2023/08/09 08:36:58;;;;;;;3.22;0.70;;;20.40;99.90;;;;;;5055017;28;20403;-73
2023/08/09 08:39:24;;;;;;;2.10;0.50;;;20.80;99.90;;;;;;5054845;28;20048;-73
2023/08/09 08:41:51;;;;;;;2.92;0.52;;;21.10;99.90;;;;;;5054901;28;20040;-76
2023/08/09 08:44:17;;;;;;;1.23;0.65;;;21.40;99.90;;;;;;5044695;28;20041;-72
2023/08/09 08:46:43;;;;;;;1.83;0.70;;;21.40;99.80;;;;;;5065591;28;20047;-73
2023/08/09 08:49:17;;;;;;;3.25;0.77;;;21.70;98.50;;;;;;5055228;28;20184;-72
2023/08/09 08:51:43;;;;;;;4.50;0.60;;;21.80;95.40;;;;;;5049097;28;20033;-73
2023/08/09 08:54:11;;;;;;;1.95;0.70;;;21.30;97.40;;;;;;5068613;28;20045;-73
2023/08/09 08:56:37;;;;;;;2.60;0.70;;;20.90;97.70;;;;;;5052593;28;20083;-73
2023/08/09 08:59:03;;;;;;;5.65;0.65;;;20.70;97.50;;;;;;5052610;28;20052;-73
2023/08/09 09:01:31;;;;;;;5.22;2.25;;;21.00;98.60;;;;;;5049625;28;20037;-73
2023/08/09 09:03:57;;;;;;;4.20;0.60;;;21.10;99.30;;;;;;5065732;28;20048;-73
2023/08/09 09:06:23;;;;;;;2.47;0.82;;;21.00;99.90;;;;;;5068975;28;20492;-72
2023/08/09 09:08:55;;;;;;;2.97;0.57;;;21.10;99.90;;;;;;5050891;28;20518;-72
2023/08/09 09:11:24;;;;;;;1.52;0.60;;;20.80;99.40;;;;;;5048185;28;20112;-72
2023/08/09 09:13:51;;;;;;;3.65;0.52;;;20.50;99.90;;;;;;5049179;28;20071;-73
2023/08/09 09:16:18;;;;;;;6.55;0.70;;;20.30;99.30;;;;;;5047790;28;20092;-73
2023/08/09 09:18:46;;;;;;;4.53;1.05;;;20.00;99.70;;;;;;5050841;28;20423;-73
2023/08/09 09:21:14;;;;;;;3.20;0.80;;;19.70;99.90;;;;;;5049298;28;20048;-72
2023/08/09 09:23:40;;;;;;;1.23;0.60;;;19.40;99.90;;;;;;5050294;28;20039;-72
2023/08/09 09:26:08;;;;;;;2.63;0.80;;;19.40;99.90;;;;;;5049439;28;20044;-72
2023/08/09 09:28:41;;;;;;;3.70;0.60;;;19.80;99.90;;;;;;5071166;28;20044;-72
2023/08/09 09:31:07;;;;;;;2.65;0.90;;;20.30;99.90;;;;;;5046683;28;20048;-72
2023/08/09 09:33:35;;;;;;;2.05;0.60;;;20.60;99.70;;;;;;5050704;28;20125;-73
2023/08/09 09:36:01;;;;;;;0.90;0.40;;;20.80;99.30;;;;;;5071020;28;20603;-72
2023/08/09 09:38:27;;;;;;;2.17;1.00;;;20.80;97.00;;;;;;5070502;28;20040;-73
2023/08/09 09:40:53;;;;;;;0.85;0.50;;;20.90;97.00;;;;;;5053195;28;20416;-72
2023/08/09 09:43:19;;;;;;;1.60;0.82;;;20.60;97.80;;;;;;5071677;28;20041;-72
2023/08/09 09:45:45;;;;;;;1.52;0.77;;;20.30;97.70;;;;;;5053784;28;20045;-72
2023/08/09 09:48:17;;;;;;;4.40;0.90;;;20.10;98.00;;;;;;5071369;28;20038;-72
2023/08/09 09:50:43;;;;;;;3.47;1.13;;;19.80;98.30;;;;;;5053372;28;20549;-72
2023/08/09 09:53:13;;;;;;;2.75;0.90;;;19.70;99.50;;;;;;5071479;28;20044;-72
2023/08/09 09:55:40;;;;;;;1.90;0.70;;;19.40;99.90;;;;;;5054009;28;20052;-72
2023/08/09 09:58:06;;;;;;;1.85;1.00;;;19.30;99.90;;;;;;5071361;28;20040;-73
2023/08/09 10:00:32;;;;;;;2.05;1.38;;;19.40;99.90;;;;;;5053647;28;20043;-73
2023/08/09 10:03:00;;;;;;;1.33;0.75;;;19.50;99.90;;;;;;5053829;28;20097;-73
2023/08/09 10:05:43;;;;;;;1.75;0.80;;;19.40;99.90;;;;;;5053163;28;20045;-73
2023/08/09 10:08:11;;;;;;;1.20;0.50;;;19.40;99.90;;;;;;5071204;28;20569;-74
2023/08/09 10:10:39;;;;;;;4.05;0.73;;;19.70;99.90;;;;;;5053107;28;20037;-74
2023/08/09 10:13:07;;;;;;;4.75;1.05;;;20.10;99.90;;;;;;5053463;28;20068;-75
2023/08/09 10:15:42;;;;;;;3.17;0.80;;;20.20;99.90;;;;;;5053415;28;20094;-75
2023/08/09 10:18:24;;;;;;;2.60;0.85;;;20.30;98.80;;;;;;5071157;28;20115;-74
2023/08/09 10:20:52;;;;;;;3.40;0.50;;;20.60;98.50;;;;;;5071319;28;20045;-75
2023/08/09 10:23:29;;;;;;;4.47;0.80;;;20.80;98.10;;;;;;5053430;28;20051;-75
2023/08/09 10:25:56;;;;;;;2.45;0.60;;;20.70;98.40;;;;;;5053690;28;20404;-74
2023/08/09 10:28:42;;;;;;;1.40;0.55;;;20.50;98.40;;;;;;5056032;28;20044;-75
2023/08/09 10:31:07;;;;;;;4.15;0.80;;;20.20;98.00;;;;;;5057334;28;20040;-74
2023/08/09 10:33:33;;;;;;;3.47;1.33;;;20.10;99.30;;;;;;5057730;28;20056;-74
2023/08/09 10:35:59;;;;;;;2.63;0.70;;;20.00;99.30;;;;;;5057757;28;20047;-75
2023/08/09 10:38:30;;;;;;;3.28;0.80;;;19.80;98.60;;;;;;5057275;28;20044;-74
2023/08/09 10:40:56;;;;;;;2.05;0.70;;;19.70;98.00;;;;;;5057278;28;20044;-75
2023/08/09 10:43:24;;;;;;;1.17;0.70;;;19.80;98.40;;;;;;5057574;28;20036;-74
2023/08/09 10:45:53;;;;;;;3.47;0.80;;;20.10;98.70;;;;;;5057188;28;20044;-74
2023/08/09 10:48:23;;;;;;;2.88;0.65;;;20.30;98.00;;;;;;5074706;28;20123;-74
2023/08/09 10:51:01;;;;;;;2.28;0.98;;;20.50;97.30;;;;;;5056882;28;20565;-74
2023/08/09 10:53:27;;;;;;;3.38;0.85;;;20.60;95.50;;;;;;5057355;28;20063;-75
2023/08/09 10:55:57;;;;;;;2.50;0.70;;;20.70;96.30;;;;;;5056965;28;20504;-74
2023/08/09 10:58:29;;;;;;;1.52;0.60;;;20.80;95.80;;;;;;5056559;28;20067;-74
2023/08/09 11:00:55;;;;;;;1.70;0.80;;;20.60;96.40;;;;;;5056842;28;20071;-74
2023/08/09 11:03:22;;;;;;;2.65;0.70;;;20.50;96.60;;;;;;5057303;28;20048;-74
2023/08/09 11:05:47;;;;;;;1.75;0.73;;;20.60;96.90;;;;;;5074926;28;20044;-74
2023/08/09 11:08:17;;;;;;;1.75;0.60;;;20.80;97.70;;;;;;5056699;28;20127;-74
2023/08/09 11:10:43;;;;;;;1.98;0.70;;;20.70;98.30;;;;;;5056701;28;20446;-75
2023/08/09 11:13:12;;;;;;;1.90;0.77;;;20.30;96.80;;;;;;5056854;28;20484;-74
2023/08/09 11:15:41;;;;;;;1.52;0.70;;;20.30;97.00;;;;;;5056645;28;20032;-74
2023/08/09 11:18:06;;;;;;;1.77;0.75;;;20.40;97.10;;;;;;5056734;28;20036;-77
2023/08/09 11:20:32;;;;;;;1.40;0.70;;;20.50;97.30;;;;;;5056481;28;20047;-75
2023/08/09 11:22:59;;;;;;;5.82;1.85;;;20.70;97.80;;;;;;5056844;28;20080;-76
2023/08/09 11:25:27;;;;;;;3.50;0.88;;;20.70;98.50;;;;;;5074650;28;20123;-75
2023/08/09 11:27:56;;;;;;;4.40;0.80;;;20.70;98.30;;;;;;5056322;28;20109;-76
2023/08/09 11:30:23;;;;;;;1.30;0.60;;;20.60;97.80;;;;;;5056366;28;20037;-75
2023/08/09 11:33:00;;;;;;;2.80;0.80;;;20.70;97.70;;;;;;5056209;28;20047;-76
2023/08/09 11:35:34;;;;;;;4.47;0.90;;;20.80;98.60;;;;;;5056230;28;20044;-75
2023/08/09 11:38:00;;;;;;;2.30;0.85;;;20.90;98.30;;;;;;5055908;28;20040;-76
2023/08/09 11:40:26;;;;;;;2.25;0.80;;;20.80;96.60;;;;;;5055302;28;20040;-76
2023/08/09 11:42:56;;;;;;;1.83;0.85;;;20.70;97.40;;;;;;5055968;28;20040;-76
2023/08/09 11:45:22;;;;;;;2.28;1.08;;;20.50;98.10;;;;;;5055951;28;20123;-76
2023/08/09 11:47:50;;;;;;;2.05;1.10;;;20.70;98.20;;;;;;5055817;28;20135;-76
2023/08/09 11:50:23;;;;;;;2.67;0.70;;;20.70;99.00;;;;;;5056045;28;20051;-76
2023/08/09 11:52:54;;;;;;;3.13;0.93;;;20.70;98.40;;;;;;5055774;28;20048;-76
2023/08/09 11:55:21;;;;;;;1.55;0.65;;;20.70;96.60;;;;;;5055203;28;20548;-75
2023/08/09 11:57:47;;;;;;;3.17;1.08;;;20.70;96.90;;;;;;5055429;28;20044;-75
2023/08/09 12:00:14;;;;;;;1.40;0.55;;;20.60;96.40;;;;;;5055744;28;20118;-75
2023/08/09 12:02:40;;;;;;;3.38;0.68;;;20.50;96.30;;;;;;5039119;28;20110;-75
2023/08/09 12:05:16;;;;;;;2.95;0.80;;;20.40;98.00;;;;;;5055893;28;20392;-75
2023/08/09 12:07:42;;;;;;;2.53;0.65;;;20.30;99.40;;;;;;5055284;28;20067;-76
2023/08/09 12:10:13;;;;;;;1.48;0.70;;;20.20;99.50;;;;;;5038194;28;20037;-75
2023/08/09 12:12:42;;;;;;;3.13;0.80;;;20.40;99.90;;;;;;5038764;28;20041;-76
2023/08/09 12:15:10;;;;;;;4.57;1.20;;;20.50;99.90;;;;;;5055390;28;20045;-74
2023/08/09 12:17:36;;;;;;;5.65;0.90;;;20.40;97.50;;;;;;5055472;28;20127;-75
2023/08/09 12:20:06;;;;;;;1.60;0.70;;;20.50;98.40;;;;;;5055467;28;20068;-75
2023/08/09 12:22:32;;;;;;;1.45;0.73;;;20.30;98.40;;;;;;5055568;28;20040;-75
2023/08/09 12:24:59;;;;;;;4.68;1.15;;;20.30;98.60;;;;;;5055428;28;20094;-75
2023/08/09 12:27:25;;;;;;;2.20;0.90;;;20.30;98.20;;;;;;5054526;28;20062;-75
2023/08/09 12:29:51;;;;;;;2.58;0.90;;;20.20;98.40;;;;;;5038607;28;20415;-75
2023/08/09 12:32:17;;;;;;;1.95;0.80;;;20.10;98.00;;;;;;5038268;28;20033;-75
2023/08/09 12:34:44;;;;;;;1.83;0.80;;;20.10;98.10;;;;;;5054819;28;20047;-75
2023/08/09 12:37:11;;;;;;;2.67;0.85;;;20.00;98.80;;;;;;5037954;28;20446;-77
2023/08/09 12:39:36;;;;;;;3.15;1.02;;;20.30;99.30;;;;;;5055024;28;20410;-76
2023/08/09 12:42:03;;;;;;;1.60;0.90;;;20.30;99.30;;;;;;5054638;28;20044;-77
2023/08/09 12:44:28;;;;;;;2.78;0.65;;;20.30;99.60;;;;;;5054939;28;20040;-77
2023/08/09 12:46:54;;;;;;;3.25;0.88;;;20.10;99.30;;;;;;5042543;28;20045;-75